createdAt,value
2022-08-25T00:00:23.000Z,19.39
2022-08-25T00:01:23.000Z,19.31
2022-08-25T00:02:23.000Z,19.30
2022-08-25T00:03:23.000Z,19.32
2022-08-25T00:04:23.000Z,19.31
2022-08-25T00:05:23.000Z,19.30
2022-08-25T00:06:23.000Z,19.27
2022-08-25T00:07:23.000Z,19.27
2022-08-25T00:08:23.000Z,19.32
2022-08-25T00:09:23.000Z,19.31
2022-08-25T00:10:23.000Z,19.32
2022-08-25T00:11:23.000Z,19.34
2022-08-25T00:12:23.000Z,19.35
2022-08-25T00:13:23.000Z,19.35
2022-08-25T00:14:23.000Z,19.34
2022-08-25T00:15:23.000Z,19.35
2022-08-25T00:16:23.000Z,19.35
2022-08-25T00:17:23.000Z,19.34
2022-08-25T00:18:23.000Z,19.35
2022-08-25T00:19:23.000Z,19.34
2022-08-25T00:20:23.000Z,19.32
2022-08-25T00:21:23.000Z,19.34
2022-08-25T00:22:23.000Z,19.32
2022-08-25T00:23:23.000Z,19.31
2022-08-25T00:24:23.000Z,19.32
2022-08-25T00:25:23.000Z,19.32
2022-08-25T00:26:23.000Z,19.32
2022-08-25T00:27:23.000Z,19.27
2022-08-25T00:28:23.000Z,19.31
2022-08-25T00:29:23.000Z,19.28
2022-08-25T00:30:23.000Z,19.28
2022-08-25T00:31:23.000Z,19.25
2022-08-25T00:32:23.000Z,19.24
2022-08-25T00:33:23.000Z,19.25
2022-08-25T00:34:23.000Z,19.23
2022-08-25T00:35:23.000Z,19.23
2022-08-25T00:36:23.000Z,19.20
2022-08-25T00:37:23.000Z,19.17
2022-08-25T00:38:23.000Z,19.16
2022-08-25T00:39:23.000Z,19.20
2022-08-25T00:40:22.000Z,19.17
2022-08-25T00:41:22.000Z,19.13
2022-08-25T00:42:22.000Z,19.10
2022-08-25T00:43:22.000Z,19.09
2022-08-25T00:44:22.000Z,19.06
2022-08-25T00:45:22.000Z,19.09
2022-08-25T00:46:22.000Z,19.07
2022-08-25T00:47:22.000Z,19.05
2022-08-25T00:48:22.000Z,18.99
2022-08-25T00:49:22.000Z,19.05
2022-08-25T00:50:22.000Z,19.02
2022-08-25T00:51:22.000Z,19.01
2022-08-25T00:52:22.000Z,18.99
2022-08-25T00:53:22.000Z,18.96
2022-08-25T00:54:22.000Z,18.96
2022-08-25T00:55:22.000Z,18.93
2022-08-25T00:56:22.000Z,18.94
2022-08-25T00:57:22.000Z,18.93
2022-08-25T00:58:22.000Z,18.90
2022-08-25T00:59:22.000Z,18.90
2022-08-25T01:00:22.000Z,18.91
2022-08-25T01:01:22.000Z,18.89
2022-08-25T01:02:22.000Z,18.89
2022-08-25T01:03:22.000Z,18.89
2022-08-25T01:04:22.000Z,18.89
2022-08-25T01:05:22.000Z,18.91
2022-08-25T01:06:22.000Z,18.90
2022-08-25T01:07:22.000Z,18.90
2022-08-25T01:08:22.000Z,18.93
2022-08-25T01:09:22.000Z,18.93
2022-08-25T01:10:22.000Z,18.89
2022-08-25T01:11:22.000Z,18.87
2022-08-25T01:12:22.000Z,18.89
2022-08-25T01:13:22.000Z,18.89
2022-08-25T01:14:22.000Z,18.91
2022-08-25T01:15:22.000Z,18.90
2022-08-25T01:16:22.000Z,18.90
2022-08-25T01:17:22.000Z,18.90
2022-08-25T01:18:22.000Z,18.90
2022-08-25T01:19:22.000Z,18.91
2022-08-25T01:20:22.000Z,18.91
2022-08-25T01:21:22.000Z,18.91
2022-08-25T01:22:22.000Z,18.90
2022-08-25T01:23:22.000Z,18.91
2022-08-25T01:24:22.000Z,18.90
2022-08-25T01:25:22.000Z,18.89
2022-08-25T01:26:22.000Z,18.90
2022-08-25T01:27:22.000Z,18.90
2022-08-25T01:28:22.000Z,18.93
2022-08-25T01:29:22.000Z,18.89
2022-08-25T01:30:22.000Z,18.86
2022-08-25T01:31:22.000Z,18.87
2022-08-25T01:32:22.000Z,18.86
2022-08-25T01:33:22.000Z,18.83
2022-08-25T01:34:22.000Z,18.87
2022-08-25T01:35:22.000Z,18.82
2022-08-25T01:36:22.000Z,18.84
2022-08-25T01:37:22.000Z,18.83
2022-08-25T01:38:22.000Z,18.82
2022-08-25T01:39:22.000Z,18.76
2022-08-25T01:40:22.000Z,18.78
2022-08-25T01:41:22.000Z,18.79
2022-08-25T01:42:22.000Z,18.79
2022-08-25T01:43:22.000Z,18.74
2022-08-25T01:44:22.000Z,18.78
2022-08-25T01:45:22.000Z,18.72
2022-08-25T01:46:22.000Z,18.75
2022-08-25T01:47:22.000Z,18.76
2022-08-25T01:48:22.000Z,18.78
2022-08-25T01:49:22.000Z,18.82
2022-08-25T01:50:22.000Z,18.78
2022-08-25T01:51:22.000Z,18.83
2022-08-25T01:52:22.000Z,18.79
2022-08-25T01:53:22.000Z,18.75
2022-08-25T01:54:21.000Z,18.76
2022-08-25T01:55:21.000Z,18.76
2022-08-25T01:56:21.000Z,18.75
2022-08-25T01:57:21.000Z,18.74
2022-08-25T01:58:21.000Z,18.74
2022-08-25T01:59:21.000Z,18.71
2022-08-25T02:00:21.000Z,18.72
2022-08-25T02:01:21.000Z,18.71
2022-08-25T02:02:21.000Z,18.69
2022-08-25T02:03:21.000Z,18.65
2022-08-25T02:04:21.000Z,18.69
2022-08-25T02:05:21.000Z,18.69
2022-08-25T02:06:21.000Z,18.65
2022-08-25T02:07:21.000Z,18.65
2022-08-25T02:08:21.000Z,18.66
2022-08-25T02:09:21.000Z,18.62
2022-08-25T02:10:21.000Z,18.62
2022-08-25T02:11:21.000Z,18.59
2022-08-25T02:12:21.000Z,18.57
2022-08-25T02:13:21.000Z,18.56
2022-08-25T02:14:21.000Z,18.54
2022-08-25T02:15:21.000Z,18.54
2022-08-25T02:16:21.000Z,18.57
2022-08-25T02:17:21.000Z,18.54
2022-08-25T02:18:21.000Z,18.59
2022-08-25T02:19:21.000Z,18.57
2022-08-25T02:20:21.000Z,18.59
2022-08-25T02:21:21.000Z,18.57
2022-08-25T02:22:21.000Z,18.59
2022-08-25T02:23:21.000Z,18.54
2022-08-25T02:24:21.000Z,18.57
2022-08-25T02:25:21.000Z,18.54
2022-08-25T02:26:21.000Z,18.57
2022-08-25T02:27:21.000Z,18.56
2022-08-25T02:28:21.000Z,18.57
2022-08-25T02:29:21.000Z,18.51
2022-08-25T02:30:21.000Z,18.54
2022-08-25T02:31:21.000Z,18.56
2022-08-25T02:32:21.000Z,18.54
2022-08-25T02:33:21.000Z,18.51
2022-08-25T02:34:21.000Z,18.50
2022-08-25T02:35:21.000Z,18.50
2022-08-25T02:36:21.000Z,18.53
2022-08-25T02:37:21.000Z,18.50
2022-08-25T02:38:21.000Z,18.49
2022-08-25T02:39:21.000Z,18.46
2022-08-25T02:40:21.000Z,18.49
2022-08-25T02:41:21.000Z,18.47
2022-08-25T02:42:21.000Z,18.46
2022-08-25T02:43:21.000Z,18.44
2022-08-25T02:44:21.000Z,18.46
2022-08-25T02:45:21.000Z,18.44
2022-08-25T02:46:21.000Z,18.42
2022-08-25T02:47:21.000Z,18.38
2022-08-25T02:48:21.000Z,18.38
2022-08-25T02:49:21.000Z,18.35
2022-08-25T02:50:21.000Z,18.35
2022-08-25T02:51:21.000Z,18.29
2022-08-25T02:52:21.000Z,18.31
2022-08-25T02:53:21.000Z,18.26
2022-08-25T02:54:21.000Z,18.31
2022-08-25T02:55:21.000Z,18.26
2022-08-25T02:56:21.000Z,18.26
2022-08-25T02:57:21.000Z,18.23
2022-08-25T02:58:21.000Z,18.23
2022-08-25T02:59:21.000Z,18.21
2022-08-25T03:00:21.000Z,18.17
2022-08-25T03:01:21.000Z,18.19
2022-08-25T03:02:21.000Z,18.17
2022-08-25T03:02:21.000Z,18.17
2022-08-25T03:03:21.000Z,18.16
2022-08-25T03:03:21.000Z,18.16
2022-08-25T03:04:21.000Z,18.13
2022-08-25T03:04:21.000Z,18.13
2022-08-25T03:05:21.000Z,18.13
2022-08-25T03:05:21.000Z,18.13
2022-08-25T03:06:21.000Z,18.14
2022-08-25T03:06:21.000Z,18.14
2022-08-25T03:07:20.000Z,18.13
2022-08-25T03:08:20.000Z,18.13
2022-08-25T03:09:20.000Z,18.11
2022-08-25T03:10:20.000Z,18.09
2022-08-25T03:11:20.000Z,18.10
2022-08-25T03:12:20.000Z,18.10
2022-08-25T03:13:20.000Z,18.11
2022-08-25T03:14:20.000Z,18.13
2022-08-25T03:15:20.000Z,18.11
2022-08-25T03:16:20.000Z,18.13
2022-08-25T03:17:20.000Z,18.16
2022-08-25T03:18:20.000Z,18.16
2022-08-25T03:19:20.000Z,18.16
2022-08-25T03:20:20.000Z,18.17
2022-08-25T03:21:20.000Z,18.16
2022-08-25T03:22:20.000Z,18.14
2022-08-25T03:23:20.000Z,18.14
2022-08-25T03:24:20.000Z,18.14
2022-08-25T03:25:20.000Z,18.14
2022-08-25T03:26:20.000Z,18.16
2022-08-25T03:27:20.000Z,18.14
2022-08-25T03:28:20.000Z,18.11
2022-08-25T03:29:20.000Z,18.13
2022-08-25T03:30:20.000Z,18.11
2022-08-25T03:31:20.000Z,18.17
2022-08-25T03:32:20.000Z,18.16
2022-08-25T03:33:20.000Z,18.14
2022-08-25T03:34:20.000Z,18.16
2022-08-25T03:35:20.000Z,18.14
2022-08-25T03:36:20.000Z,18.19
2022-08-25T03:37:20.000Z,18.16
2022-08-25T03:38:20.000Z,18.11
2022-08-25T03:39:20.000Z,18.13
2022-08-25T03:40:20.000Z,18.13
2022-08-25T03:41:20.000Z,18.13
2022-08-25T03:42:20.000Z,18.11
2022-08-25T03:43:20.000Z,18.13
2022-08-25T03:44:20.000Z,18.11
2022-08-25T03:45:20.000Z,18.10
2022-08-25T03:46:20.000Z,18.10
2022-08-25T03:47:20.000Z,18.07
2022-08-25T03:48:20.000Z,18.14
2022-08-25T03:49:20.000Z,18.10
2022-08-25T03:50:20.000Z,18.10
2022-08-25T03:51:20.000Z,18.07
2022-08-25T03:52:20.000Z,18.09
2022-08-25T03:53:20.000Z,18.09
2022-08-25T03:54:20.000Z,18.07
2022-08-25T03:55:20.000Z,18.09
2022-08-25T03:56:20.000Z,18.07
2022-08-25T03:57:20.000Z,18.09
2022-08-25T03:58:20.000Z,18.10
2022-08-25T03:59:20.000Z,18.10
2022-08-25T04:00:20.000Z,18.11
2022-08-25T04:01:20.000Z,18.11
2022-08-25T04:02:20.000Z,18.09
2022-08-25T04:03:20.000Z,18.11
2022-08-25T04:04:20.000Z,18.11
2022-08-25T04:05:20.000Z,18.10
2022-08-25T04:06:20.000Z,18.14
2022-08-25T04:07:20.000Z,18.11
2022-08-25T04:08:20.000Z,18.14
2022-08-25T04:09:20.000Z,18.10
2022-08-25T04:10:20.000Z,18.09
2022-08-25T04:11:20.000Z,18.11
2022-08-25T04:12:20.000Z,18.11
2022-08-25T04:13:20.000Z,18.11
2022-08-25T04:14:20.000Z,18.10
2022-08-25T04:15:20.000Z,18.13
2022-08-25T04:16:20.000Z,18.13
2022-08-25T04:17:20.000Z,18.09
2022-08-25T04:18:20.000Z,18.13
2022-08-25T04:19:20.000Z,18.14
2022-08-25T04:20:19.000Z,18.11
2022-08-25T04:21:19.000Z,18.13
2022-08-25T04:22:19.000Z,18.11
2022-08-25T04:23:19.000Z,18.09
2022-08-25T04:24:19.000Z,18.09
2022-08-25T04:25:19.000Z,18.07
2022-08-25T04:26:19.000Z,18.10
2022-08-25T04:27:19.000Z,18.13
2022-08-25T04:28:19.000Z,18.07
2022-08-25T04:29:19.000Z,18.10
2022-08-25T04:30:19.000Z,18.11
2022-08-25T04:31:19.000Z,18.09
2022-08-25T04:32:19.000Z,18.09
2022-08-25T04:33:19.000Z,18.05
2022-08-25T04:34:19.000Z,18.07
2022-08-25T04:35:19.000Z,18.07
2022-08-25T04:36:19.000Z,18.09
2022-08-25T04:37:19.000Z,18.05
2022-08-25T04:38:19.000Z,18.09
2022-08-25T04:39:19.000Z,18.10
2022-08-25T04:40:19.000Z,18.09
2022-08-25T04:41:19.000Z,18.10
2022-08-25T04:42:19.000Z,18.13
2022-08-25T04:43:19.000Z,18.11
2022-08-25T04:44:19.000Z,18.13
2022-08-25T04:45:19.000Z,18.14
2022-08-25T04:46:19.000Z,18.13
2022-08-25T04:47:19.000Z,18.14
2022-08-25T04:48:19.000Z,18.16
2022-08-25T04:49:19.000Z,18.19
2022-08-25T04:50:19.000Z,18.21
2022-08-25T04:51:19.000Z,18.19
2022-08-25T04:52:19.000Z,18.20
2022-08-25T04:53:19.000Z,18.23
2022-08-25T04:54:19.000Z,18.29
2022-08-25T04:55:19.000Z,18.21
2022-08-25T04:56:19.000Z,18.28
2022-08-25T04:57:19.000Z,18.26
2022-08-25T04:58:19.000Z,18.29
2022-08-25T04:59:19.000Z,18.29
2022-08-25T05:00:19.000Z,18.32
2022-08-25T05:01:19.000Z,18.34
2022-08-25T05:02:19.000Z,18.32
2022-08-25T05:03:19.000Z,18.34
2022-08-25T05:04:19.000Z,18.35
2022-08-25T05:05:19.000Z,18.36
2022-08-25T05:06:19.000Z,18.38
2022-08-25T05:07:19.000Z,18.39
2022-08-25T05:08:19.000Z,18.39
2022-08-25T05:09:19.000Z,18.44
2022-08-25T05:10:19.000Z,18.44
2022-08-25T05:11:19.000Z,18.51
2022-08-25T05:12:19.000Z,18.49
2022-08-25T05:13:19.000Z,18.49
2022-08-25T05:14:19.000Z,18.53
2022-08-25T05:15:19.000Z,18.54
2022-08-25T05:16:19.000Z,18.60
2022-08-25T05:17:19.000Z,18.59
2022-08-25T05:18:19.000Z,18.60
2022-08-25T05:19:19.000Z,18.60
2022-08-25T05:20:19.000Z,18.65
2022-08-25T05:21:19.000Z,18.66
2022-08-25T05:22:19.000Z,18.65
2022-08-25T05:23:19.000Z,18.68
2022-08-25T05:24:19.000Z,18.71
2022-08-25T05:25:19.000Z,18.72
2022-08-25T05:26:19.000Z,18.72
2022-08-25T05:27:19.000Z,18.75
2022-08-25T05:28:19.000Z,18.76
2022-08-25T05:29:19.000Z,18.83
2022-08-25T05:30:19.000Z,18.83
2022-08-25T05:31:19.000Z,18.89
2022-08-25T05:32:19.000Z,18.87
2022-08-25T05:33:18.000Z,18.96
2022-08-25T05:34:18.000Z,18.94
2022-08-25T05:35:18.000Z,18.97
2022-08-25T05:36:18.000Z,19.05
2022-08-25T05:37:18.000Z,19.06
2022-08-25T05:38:18.000Z,19.07
2022-08-25T05:39:18.000Z,19.15
2022-08-25T05:40:18.000Z,19.15
2022-08-25T05:41:18.000Z,19.20
2022-08-25T05:42:18.000Z,19.23
2022-08-25T05:43:18.000Z,19.24
2022-08-25T05:44:18.000Z,19.24
2022-08-25T05:45:18.000Z,19.31
2022-08-25T05:46:18.000Z,19.35
2022-08-25T05:47:18.000Z,19.39
2022-08-25T05:48:18.000Z,19.42
2022-08-25T05:49:18.000Z,19.46
2022-08-25T05:50:18.000Z,19.47
2022-08-25T05:51:18.000Z,19.50
2022-08-25T05:52:18.000Z,19.53
2022-08-25T05:53:18.000Z,19.60
2022-08-25T05:54:18.000Z,19.60
2022-08-25T05:55:18.000Z,19.64
2022-08-25T05:56:18.000Z,19.68
2022-08-25T05:57:18.000Z,19.68
2022-08-25T05:58:18.000Z,19.72
2022-08-25T05:59:18.000Z,19.79
2022-08-25T06:00:18.000Z,19.80
2022-08-25T06:01:18.000Z,19.85
2022-08-25T06:02:18.000Z,19.87
2022-08-25T06:03:18.000Z,19.90
2022-08-25T06:04:18.000Z,19.90
2022-08-25T06:05:18.000Z,19.97
2022-08-25T06:06:18.000Z,20.00
2022-08-25T06:07:18.000Z,20.05
2022-08-25T06:08:18.000Z,20.07
2022-08-25T06:09:18.000Z,20.10
2022-08-25T06:10:18.000Z,20.16
2022-08-25T06:11:18.000Z,20.20
2022-08-25T06:12:18.000Z,20.26
2022-08-25T06:13:18.000Z,20.27
2022-08-25T06:14:18.000Z,20.31
2022-08-25T06:15:18.000Z,20.35
2022-08-25T06:16:18.000Z,20.42
2022-08-25T06:17:18.000Z,20.41
2022-08-25T06:18:18.000Z,20.51
2022-08-25T06:19:18.000Z,20.54
2022-08-25T06:20:18.000Z,20.57
2022-08-25T06:21:18.000Z,20.58
2022-08-25T06:22:18.000Z,20.66
2022-08-25T06:23:18.000Z,20.71
2022-08-25T06:24:18.000Z,20.75
2022-08-25T06:25:18.000Z,20.75
2022-08-25T06:26:18.000Z,20.83
2022-08-25T06:27:18.000Z,20.81
2022-08-25T06:28:18.000Z,20.91
2022-08-25T06:29:18.000Z,20.93
2022-08-25T06:30:18.000Z,21.05
2022-08-25T06:31:18.000Z,21.05
2022-08-25T06:32:18.000Z,21.08
2022-08-25T06:33:18.000Z,21.08
2022-08-25T06:34:18.000Z,21.06
2022-08-25T06:35:18.000Z,21.09
2022-08-25T06:36:18.000Z,21.15
2022-08-25T06:37:18.000Z,21.16
2022-08-25T06:38:18.000Z,21.18
2022-08-25T06:39:18.000Z,21.18
2022-08-25T06:40:18.000Z,21.26
2022-08-25T06:41:18.000Z,21.30
2022-08-25T06:42:18.000Z,21.34
2022-08-25T06:43:18.000Z,21.37
2022-08-25T06:44:18.000Z,21.40
2022-08-25T06:45:18.000Z,21.45
2022-08-25T06:46:18.000Z,21.51
2022-08-25T06:47:17.000Z,21.49
2022-08-25T06:48:17.000Z,21.53
2022-08-25T06:49:17.000Z,21.59
2022-08-25T06:50:17.000Z,21.63
2022-08-25T06:51:17.000Z,21.67
2022-08-25T06:52:17.000Z,21.68
2022-08-25T06:53:17.000Z,21.75
2022-08-25T06:54:17.000Z,21.79
2022-08-25T06:55:17.000Z,21.77
2022-08-25T06:56:17.000Z,21.86
2022-08-25T06:57:17.000Z,21.89
2022-08-25T06:58:17.000Z,21.90
2022-08-25T06:59:17.000Z,21.93
2022-08-25T07:00:17.000Z,21.96
2022-08-25T07:01:17.000Z,21.93
2022-08-25T07:02:17.000Z,21.96
2022-08-25T07:02:17.000Z,21.96
2022-08-25T07:03:17.000Z,22.02
2022-08-25T07:03:17.000Z,22.02
2022-08-25T07:04:17.000Z,22.02
2022-08-25T07:04:17.000Z,22.02
2022-08-25T07:05:17.000Z,22.11
2022-08-25T07:05:17.000Z,22.11
2022-08-25T07:06:17.000Z,22.15
2022-08-25T07:06:17.000Z,22.15
2022-08-25T07:07:17.000Z,22.20
2022-08-25T07:08:17.000Z,22.27
2022-08-25T07:09:17.000Z,22.38
2022-08-25T07:10:17.000Z,22.36
2022-08-25T07:11:17.000Z,22.36
2022-08-25T07:12:17.000Z,22.38
2022-08-25T07:13:17.000Z,22.42
2022-08-25T07:14:17.000Z,22.45
2022-08-25T07:15:17.000Z,22.54
2022-08-25T07:16:17.000Z,22.54
2022-08-25T07:17:17.000Z,22.61
2022-08-25T07:18:17.000Z,22.64
2022-08-25T07:19:17.000Z,22.69
2022-08-25T07:20:17.000Z,22.72
2022-08-25T07:21:17.000Z,22.74
2022-08-25T07:22:17.000Z,22.79
2022-08-25T07:23:17.000Z,22.82
2022-08-25T07:24:17.000Z,22.91
2022-08-25T07:25:17.000Z,22.99
2022-08-25T07:26:17.000Z,23.01
2022-08-25T07:27:17.000Z,23.09
2022-08-25T07:28:17.000Z,23.12
2022-08-25T07:29:17.000Z,23.21
2022-08-25T07:30:17.000Z,23.23
2022-08-25T07:31:17.000Z,23.32
2022-08-25T07:32:17.000Z,23.35
2022-08-25T07:33:17.000Z,23.42
2022-08-25T07:34:17.000Z,23.44
2022-08-25T07:35:17.000Z,23.49
2022-08-25T07:36:17.000Z,23.57
2022-08-25T07:37:17.000Z,23.63
2022-08-25T07:38:17.000Z,23.71
2022-08-25T07:39:17.000Z,23.74
2022-08-25T07:40:17.000Z,23.82
2022-08-25T07:41:17.000Z,23.94
2022-08-25T07:42:17.000Z,24.02
2022-08-25T07:43:17.000Z,24.05
2022-08-25T07:44:17.000Z,24.14
2022-08-25T07:45:17.000Z,24.21
2022-08-25T07:46:17.000Z,24.30
2022-08-25T07:47:17.000Z,24.39
2022-08-25T07:48:17.000Z,24.42
2022-08-25T07:49:17.000Z,24.53
2022-08-25T07:50:17.000Z,24.56
2022-08-25T07:51:17.000Z,24.60
2022-08-25T07:52:17.000Z,24.46
2022-08-25T07:53:17.000Z,24.44
2022-08-25T07:54:17.000Z,24.44
2022-08-25T07:55:17.000Z,24.42
2022-08-25T07:56:17.000Z,24.46
2022-08-25T07:57:17.000Z,24.51
2022-08-25T07:58:17.000Z,24.46
2022-08-25T07:59:17.000Z,24.51
2022-08-25T08:00:16.000Z,24.51
2022-08-25T08:01:16.000Z,24.53
2022-08-25T08:02:16.000Z,24.51
2022-08-25T08:02:16.000Z,24.51
2022-08-25T08:03:16.000Z,24.52
2022-08-25T08:03:16.000Z,24.52
2022-08-25T08:04:16.000Z,24.51
2022-08-25T08:04:16.000Z,24.51
2022-08-25T08:05:16.000Z,24.59
2022-08-25T08:05:16.000Z,24.59
2022-08-25T08:06:16.000Z,24.55
2022-08-25T08:06:16.000Z,24.55
2022-08-25T08:07:16.000Z,24.59
2022-08-25T08:08:16.000Z,24.49
2022-08-25T08:09:16.000Z,24.70
2022-08-25T08:10:16.000Z,24.92
2022-08-25T08:11:16.000Z,25.19
2022-08-25T08:12:16.000Z,25.42
2022-08-25T08:13:16.000Z,25.82
2022-08-25T08:14:16.000Z,26.08
2022-08-25T08:15:16.000Z,26.35
2022-08-25T08:16:16.000Z,26.54
2022-08-25T08:17:16.000Z,26.53
2022-08-25T08:18:16.000Z,26.47
2022-08-25T08:19:16.000Z,26.44
2022-08-25T08:20:16.000Z,26.27
2022-08-25T08:21:16.000Z,26.28
2022-08-25T08:22:16.000Z,26.23
2022-08-25T08:23:16.000Z,26.04
2022-08-25T08:24:16.000Z,26.03
2022-08-25T08:25:16.000Z,26.01
2022-08-25T08:26:16.000Z,25.97
2022-08-25T08:27:16.000Z,25.97
2022-08-25T08:27:16.000Z,25.97
2022-08-25T08:28:16.000Z,26.00
2022-08-25T08:28:16.000Z,26.00
2022-08-25T08:29:16.000Z,25.94
2022-08-25T08:29:16.000Z,25.94
2022-08-25T08:30:16.000Z,25.93
2022-08-25T08:30:16.000Z,25.93
2022-08-25T08:31:16.000Z,25.90
2022-08-25T08:31:16.000Z,25.90
2022-08-25T08:32:16.000Z,25.89
2022-08-25T08:33:16.000Z,25.90
2022-08-25T08:34:16.000Z,25.90
2022-08-25T08:35:16.000Z,25.90
2022-08-25T08:36:16.000Z,26.00
2022-08-25T08:37:16.000Z,26.19
2022-08-25T08:38:16.000Z,26.59
2022-08-25T08:39:16.000Z,26.65
2022-08-25T08:40:16.000Z,26.53
2022-08-25T08:41:16.000Z,26.46
2022-08-25T08:42:16.000Z,26.44
2022-08-25T08:43:16.000Z,26.34
2022-08-25T08:44:16.000Z,26.16
2022-08-25T08:45:16.000Z,26.19
2022-08-25T08:46:16.000Z,26.31
2022-08-25T08:47:16.000Z,26.35
2022-08-25T08:48:16.000Z,26.42
2022-08-25T08:49:16.000Z,26.51
2022-08-25T08:50:16.000Z,26.78
2022-08-25T08:51:16.000Z,27.16
2022-08-25T08:52:16.000Z,27.50
2022-08-25T08:53:16.000Z,27.87
2022-08-25T08:54:16.000Z,28.09
2022-08-25T08:55:16.000Z,28.20
2022-08-25T08:56:16.000Z,28.13
2022-08-25T08:57:16.000Z,28.02
2022-08-25T08:57:16.000Z,28.02
2022-08-25T08:58:16.000Z,27.87
2022-08-25T08:58:16.000Z,27.87
2022-08-25T08:59:16.000Z,27.95
2022-08-25T08:59:16.000Z,27.95
2022-08-25T09:00:16.000Z,28.15
2022-08-25T09:00:16.000Z,28.15
2022-08-25T09:01:16.000Z,28.20
2022-08-25T09:01:16.000Z,28.20
2022-08-25T09:02:16.000Z,28.39
2022-08-25T09:03:16.000Z,28.62
2022-08-25T09:04:16.000Z,28.69
2022-08-25T09:05:16.000Z,28.85
2022-08-25T09:06:16.000Z,28.73
2022-08-25T09:07:16.000Z,28.43
2022-08-25T09:08:16.000Z,28.18
2022-08-25T09:09:16.000Z,27.90
2022-08-25T09:10:16.000Z,27.62
2022-08-25T09:11:16.000Z,27.30
2022-08-25T09:12:16.000Z,27.11
2022-08-25T09:13:15.000Z,27.16
2022-08-25T09:14:15.000Z,27.05
2022-08-25T09:15:15.000Z,26.91
2022-08-25T09:16:15.000Z,27.13
2022-08-25T09:17:15.000Z,27.27
2022-08-25T09:17:15.000Z,27.27
2022-08-25T09:18:15.000Z,27.39
2022-08-25T09:18:15.000Z,27.39
2022-08-25T09:19:15.000Z,27.43
2022-08-25T09:19:15.000Z,27.43
2022-08-25T09:20:15.000Z,27.39
2022-08-25T09:20:15.000Z,27.39
2022-08-25T09:21:15.000Z,27.31
2022-08-25T09:21:15.000Z,27.31
2022-08-25T09:22:15.000Z,27.27
2022-08-25T09:23:15.000Z,27.53
2022-08-25T09:24:15.000Z,27.81
2022-08-25T09:25:15.000Z,27.96
2022-08-25T09:26:15.000Z,28.14
2022-08-25T09:27:15.000Z,28.25
2022-08-25T09:27:15.000Z,28.25
2022-08-25T09:28:15.000Z,28.05
2022-08-25T09:28:15.000Z,28.05
2022-08-25T09:29:15.000Z,27.96
2022-08-25T09:29:15.000Z,27.96
2022-08-25T09:30:15.000Z,28.05
2022-08-25T09:30:15.000Z,28.05
2022-08-25T09:31:15.000Z,28.11
2022-08-25T09:31:15.000Z,28.11
2022-08-25T09:32:15.000Z,28.17
2022-08-25T09:33:15.000Z,28.40
2022-08-25T09:34:15.000Z,28.45
2022-08-25T09:35:15.000Z,28.27
2022-08-25T09:36:15.000Z,28.17
2022-08-25T09:37:15.000Z,28.18
2022-08-25T09:38:15.000Z,28.38
2022-08-25T09:39:15.000Z,28.36
2022-08-25T09:40:15.000Z,28.14
2022-08-25T09:41:15.000Z,27.96
2022-08-25T09:42:15.000Z,27.78
2022-08-25T09:43:15.000Z,27.61
2022-08-25T09:44:15.000Z,27.43
2022-08-25T09:45:15.000Z,27.31
2022-08-25T09:46:15.000Z,27.27
2022-08-25T09:47:15.000Z,27.21
2022-08-25T09:48:15.000Z,27.45
2022-08-25T09:49:15.000Z,27.62
2022-08-25T09:50:15.000Z,27.78
2022-08-25T09:51:15.000Z,27.76
2022-08-25T09:52:15.000Z,27.71
2022-08-25T09:53:15.000Z,27.62
2022-08-25T09:54:15.000Z,27.69
2022-08-25T09:55:15.000Z,27.59
2022-08-25T09:56:15.000Z,27.40
2022-08-25T09:57:15.000Z,27.35
2022-08-25T09:58:15.000Z,27.25
2022-08-25T09:59:15.000Z,27.24
2022-08-25T10:00:15.000Z,27.20
2022-08-25T10:01:15.000Z,27.12
2022-08-25T10:02:15.000Z,27.05
2022-08-25T10:03:15.000Z,27.16
2022-08-25T10:04:15.000Z,27.53
2022-08-25T10:05:15.000Z,27.95
2022-08-25T10:06:15.000Z,28.30
2022-08-25T10:07:15.000Z,28.46
2022-08-25T10:08:15.000Z,28.67
2022-08-25T10:09:15.000Z,28.89
2022-08-25T10:10:15.000Z,29.12
2022-08-25T10:11:15.000Z,29.12
2022-08-25T10:12:15.000Z,28.87
2022-08-25T10:13:15.000Z,28.82
2022-08-25T10:14:15.000Z,28.85
2022-08-25T10:15:15.000Z,28.85
2022-08-25T10:16:15.000Z,28.88
2022-08-25T10:17:15.000Z,28.73
2022-08-25T10:18:15.000Z,28.46
2022-08-25T10:19:15.000Z,28.36
2022-08-25T10:20:15.000Z,28.25
2022-08-25T10:21:15.000Z,28.33
2022-08-25T10:22:15.000Z,28.35
2022-08-25T10:23:15.000Z,28.38
2022-08-25T10:24:15.000Z,28.40
2022-08-25T10:25:15.000Z,28.32
2022-08-25T10:26:15.000Z,28.33
2022-08-25T10:27:14.000Z,28.51
2022-08-25T10:28:14.000Z,28.70
2022-08-25T10:29:14.000Z,28.87
2022-08-25T10:30:14.000Z,29.05
2022-08-25T10:31:14.000Z,29.20
2022-08-25T10:32:14.000Z,29.33
2022-08-25T10:33:14.000Z,29.42
2022-08-25T10:34:14.000Z,29.51
2022-08-25T10:35:14.000Z,29.69
2022-08-25T10:36:14.000Z,29.78
2022-08-25T10:37:14.000Z,29.92
2022-08-25T10:38:14.000Z,30.06
2022-08-25T10:39:14.000Z,30.04
2022-08-25T10:40:14.000Z,30.11
2022-08-25T10:41:14.000Z,30.26
2022-08-25T10:42:14.000Z,30.36
2022-08-25T10:43:14.000Z,30.37
2022-08-25T10:44:14.000Z,30.48
2022-08-25T10:45:14.000Z,30.49
2022-08-25T10:46:14.000Z,30.44
2022-08-25T10:47:14.000Z,30.26
2022-08-25T10:48:14.000Z,30.19
2022-08-25T10:49:14.000Z,30.23
2022-08-25T10:50:14.000Z,30.26
2022-08-25T10:51:14.000Z,30.28
2022-08-25T10:52:14.000Z,30.40
2022-08-25T10:53:14.000Z,30.48
2022-08-25T10:54:14.000Z,30.56
2022-08-25T10:55:14.000Z,30.57
2022-08-25T10:56:14.000Z,30.29
2022-08-25T10:57:14.000Z,30.28
2022-08-25T10:58:14.000Z,30.22
2022-08-25T10:59:14.000Z,30.04
2022-08-25T11:00:14.000Z,29.88
2022-08-25T11:01:14.000Z,29.71
2022-08-25T11:02:14.000Z,29.55
2022-08-25T11:03:14.000Z,29.41
2022-08-25T11:04:14.000Z,29.35
2022-08-25T11:05:14.000Z,29.25
2022-08-25T11:06:14.000Z,29.18
2022-08-25T11:07:14.000Z,29.21
2022-08-25T11:08:14.000Z,29.25
2022-08-25T11:09:14.000Z,29.20
2022-08-25T11:10:14.000Z,29.14
2022-08-25T11:11:14.000Z,29.08
2022-08-25T11:12:14.000Z,29.08
2022-08-25T11:13:14.000Z,29.00
2022-08-25T11:14:14.000Z,28.91
2022-08-25T11:15:14.000Z,28.80
2022-08-25T11:16:14.000Z,28.64
2022-08-25T11:17:14.000Z,28.58
2022-08-25T11:18:14.000Z,28.58
2022-08-25T11:19:14.000Z,28.48
2022-08-25T11:20:14.000Z,28.42
2022-08-25T11:21:14.000Z,28.40
2022-08-25T11:22:14.000Z,28.62
2022-08-25T11:23:14.000Z,28.89
2022-08-25T11:24:14.000Z,28.92
2022-08-25T11:25:14.000Z,28.87
2022-08-25T11:26:14.000Z,28.76
2022-08-25T11:27:14.000Z,28.69
2022-08-25T11:28:14.000Z,28.52
2022-08-25T11:29:14.000Z,28.35
2022-08-25T11:30:14.000Z,28.24
2022-08-25T11:31:14.000Z,28.18
2022-08-25T11:32:14.000Z,28.23
2022-08-25T11:33:14.000Z,28.23
2022-08-25T11:34:14.000Z,28.36
2022-08-25T11:35:14.000Z,28.69
2022-08-25T11:36:14.000Z,28.98
2022-08-25T11:37:14.000Z,29.36
2022-08-25T11:38:14.000Z,29.63
2022-08-25T11:39:14.000Z,29.88
2022-08-25T11:40:13.000Z,30.11
2022-08-25T11:41:13.000Z,30.32
2022-08-25T11:42:13.000Z,30.38
2022-08-25T11:43:13.000Z,30.26
2022-08-25T11:44:13.000Z,30.28
2022-08-25T11:45:13.000Z,30.37
2022-08-25T11:46:13.000Z,30.19
2022-08-25T11:47:13.000Z,29.97
2022-08-25T11:48:13.000Z,30.01
2022-08-25T11:49:13.000Z,30.11
2022-08-25T11:50:13.000Z,30.37
2022-08-25T11:51:13.000Z,30.60
2022-08-25T11:52:13.000Z,30.82
2022-08-25T11:53:13.000Z,31.04
2022-08-25T11:54:13.000Z,31.25
2022-08-25T11:55:13.000Z,31.45
2022-08-25T11:56:13.000Z,31.56
2022-08-25T11:57:13.000Z,31.67
2022-08-25T11:58:13.000Z,31.82
2022-08-25T11:59:13.000Z,32.03
2022-08-25T12:00:13.000Z,32.12
2022-08-25T12:01:13.000Z,32.05
2022-08-25T12:02:13.000Z,32.10
2022-08-25T12:03:13.000Z,32.25
2022-08-25T12:04:13.000Z,32.17
2022-08-25T12:05:13.000Z,31.95
2022-08-25T12:06:13.000Z,31.85
2022-08-25T12:07:13.000Z,31.74
2022-08-25T12:08:13.000Z,31.57
2022-08-25T12:09:13.000Z,31.67
2022-08-25T12:10:13.000Z,31.60
2022-08-25T12:11:13.000Z,31.41
2022-08-25T12:12:13.000Z,31.28
2022-08-25T12:13:13.000Z,31.03
2022-08-25T12:14:13.000Z,31.07
2022-08-25T12:15:13.000Z,31.23
2022-08-25T12:16:13.000Z,31.32
2022-08-25T12:17:13.000Z,31.37